Time;durP1;ratioP1;P1;durP2;ratioP2;P2;SDS_P1;SDS_P2;PMS_P1;PMS_P2;Temp;Humidity;BMP_temperature;BMP_pressure;BME280_temperature;BME280_humidity;BME280_pressure;Samples;Min_cycle;Max_cycle;Signal;HPM_P1;HPM_P2
2023/03/28 00:00:47;;;;;;;11.73;1.77;;;3.40;99.90;;;;;;5040600;28;20041;-67
2023/03/28 00:03:13;;;;;;;11.27;2.50;;;3.60;99.90;;;;;;5041282;28;20041;-68
2023/03/28 00:05:40;;;;;;;10.38;2.75;;;;;;;;;;5046381;28;20041;-67
2023/03/28 00:08:06;;;;;;;8.98;2.63;;;3.40;99.90;;;;;;5044612;28;20345;-67
2023/03/28 00:10:31;;;;;;;9.38;2.50;;;3.90;99.90;;;;;;5045654;28;20486;-67
2023/03/28 00:12:57;;;;;;;12.40;2.47;;;3.40;99.90;;;;;;5049438;28;20040;-67
2023/03/28 00:15:24;;;;;;;12.70;2.85;;;3.10;99.90;;;;;;5050150;28;20036;-68
2023/03/28 00:17:51;;;;;;;11.60;2.55;;;3.40;99.90;;;;;;5041131;28;20044;-68
2023/03/28 00:20:17;;;;;;;11.05;3.38;;;3.30;99.90;;;;;;5049418;28;20037;-68
2023/03/28 00:22:43;;;;;;;8.98;2.05;;;3.30;99.90;;;;;;5049000;28;20411;-68
2023/03/28 00:25:10;;;;;;;11.70;2.58;;;3.20;99.90;;;;;;5045380;28;20203;-68
2023/03/28 00:27:36;;;;;;;9.27;2.58;;;3.20;99.90;;;;;;5044638;28;20212;-68
2023/03/28 00:30:03;;;;;;;10.02;3.35;;;;;;;;;;5048587;28;20155;-68
2023/03/28 00:32:30;;;;;;;8.30;2.20;;;;;;;;;;5039465;28;20272;-68
2023/03/28 00:34:55;;;;;;;9.95;2.35;;;3.30;99.90;;;;;;5048283;28;20037;-68
2023/03/28 00:37:21;;;;;;;11.00;2.30;;;3.00;99.90;;;;;;5047023;28;20087;-68
2023/03/28 00:39:50;;;;;;;8.88;2.25;;;3.30;99.90;;;;;;5049393;28;20083;-68
2023/03/28 00:42:20;;;;;;;10.13;2.40;;;3.20;99.90;;;;;;5048227;28;20478;-68
2023/03/28 00:44:50;;;;;;;10.00;2.30;;;;;;;;;;5048840;28;20094;-68
2023/03/28 00:47:25;;;;;;;14.65;3.28;;;3.10;99.90;;;;;;5045474;28;20057;-67
2023/03/28 00:49:52;;;;;;;;;;;3.10;99.90;;;;;;5047779;28;20041;-67
2023/03/28 00:52:20;;;;;;;8.13;2.08;;;2.90;99.90;;;;;;5043615;28;19923;-67
2023/03/28 00:54:46;;;;;;;11.80;2.80;;;3.00;99.90;;;;;;5048426;28;20537;-67
2023/03/28 00:57:15;;;;;;;10.07;2.50;;;;;;;;;;5044002;28;20116;-67
2023/03/28 00:59:41;;;;;;;10.25;2.85;;;3.00;1.00;;;;;;5046409;28;20049;-67
2023/03/28 01:02:07;;;;;;;11.38;2.47;;;3.30;1.00;;;;;;5048581;28;20047;-67
2023/03/28 01:04:53;;;;;;;11.63;2.50;;;;;;;;;;5047864;28;20041;-67
2023/03/28 01:07:19;;;;;;;15.20;2.22;;;;;;;;;;5040157;28;20079;-67
2023/03/28 01:09:46;;;;;;;8.25;2.55;;;2.70;1.00;;;;;;5044162;28;20037;-67
2023/03/28 01:12:14;;;;;;;11.10;2.20;;;2.90;1.00;;;;;;5048365;28;20540;-67
2023/03/28 01:14:42;;;;;;;11.02;2.30;;;2.80;1.00;;;;;;5046000;28;20041;-67
2023/03/28 01:17:09;;;;;;;8.98;2.38;;;2.60;1.00;;;;;;5036092;28;20064;-67
2023/03/28 01:19:57;;;;;;;9.18;2.28;;;2.60;98.20;;;;;;5045083;28;20083;-67
2023/03/28 01:22:29;;;;;;;14.30;2.60;;;2.70;79.20;;;;;;5033328;28;20033;-67
2023/03/28 01:25:20;;;;;;;11.48;3.05;;;2.70;96.00;;;;;;5045879;28;20045;-67
2023/03/28 01:27:54;;;;;;;10.25;2.28;;;;;;;;;;5049969;28;20120;-67
2023/03/28 01:30:50;;;;;;;14.55;2.35;;;2.60;99.90;;;;;;5053125;28;20037;-67
2023/03/28 01:33:20;;;;;;;12.43;2.53;;;;;;;;;;5046172;28;20041;-67
2023/03/28 01:36:13;;;;;;;8.90;2.22;;;2.90;99.90;;;;;;5051961;28;20083;-68
2023/03/28 01:38:55;;;;;;;13.80;2.20;;;3.00;98.30;;;;;;5044897;28;20494;-67
2023/03/28 01:41:31;;;;;;;7.90;2.10;;;;;;;;;;5052398;28;20041;-67
2023/03/28 01:44:04;;;;;;;9.50;1.90;;;2.40;29.70;;;;;;5052620;28;20131;-67
2023/03/28 01:46:42;;;;;;;10.50;2.50;;;2.40;50.00;;;;;;5052987;28;20036;-67
2023/03/28 01:49:16;;;;;;;11.43;2.47;;;2.10;67.30;;;;;;5048020;28;20483;-67
2023/03/28 01:51:42;;;;;;;11.10;2.22;;;2.30;59.10;;;;;;5044439;28;20112;-67
2023/03/28 01:54:25;;;;;;;19.90;5.63;;;;;;;;;;5052134;28;20131;-68
2023/03/28 01:56:58;;;;;;;18.05;2.75;;;2.60;42.70;;;;;;5047255;28;20112;-68
2023/03/28 01:59:37;;;;;;;13.43;3.20;;;2.30;53.20;;;;;;5052845;28;20072;-67
2023/03/28 02:02:14;;;;;;;9.13;2.80;;;2.40;33.00;;;;;;5051065;28;20106;-67
2023/03/28 02:04:41;;;;;;;12.38;2.90;;;;;;;;;;5048731;28;20036;-67
2023/03/28 02:07:09;;;;;;;13.15;2.97;;;2.70;1.70;;;;;;5038656;28;20487;-68
2023/03/28 02:09:37;;;;;;;11.52;2.05;;;2.70;1.00;;;;;;5047815;28;20344;-68
2023/03/28 02:12:09;;;;;;;14.18;3.00;;;2.60;1.00;;;;;;5051967;28;21172;-68
2023/03/28 02:14:40;;;;;;;10.02;2.72;;;2.90;1.00;;;;;;5052754;28;20090;-67
2023/03/28 02:17:08;;;;;;;12.98;2.10;;;;;;;;;;5041214;28;20037;-67
2023/03/28 02:19:37;;;;;;;18.25;2.53;;;2.40;1.00;;;;;;5051542;28;20219;-67
2023/03/28 02:22:08;;;;;;;9.25;1.90;;;;;;;;;;5051227;28;20040;-67
2023/03/28 02:24:33;;;;;;;11.93;2.50;;;2.50;1.00;;;;;;5052519;28;20620;-68
2023/03/28 02:26:59;;;;;;;9.93;2.47;;;2.50;1.00;;;;;;5042717;28;20037;-67
2023/03/28 02:29:27;;;;;;;9.48;2.03;;;2.70;2.80;;;;;;5044312;28;20087;-67
2023/03/28 02:31:53;;;;;;;10.32;2.42;;;2.70;1.60;;;;;;5049965;28;20044;-67
2023/03/28 02:34:18;;;;;;;12.18;2.58;;;2.20;18.20;;;;;;5051214;28;20115;-67
2023/03/28 02:37:04;;;;;;;9.52;2.17;;;;;;;;;;5047644;28;20140;-67
2023/03/28 02:39:49;;;;;;;9.57;1.95;;;;;;;;;;5053226;28;20043;-67
2023/03/28 02:42:35;;;;;;;8.90;1.92;;;2.40;13.50;;;;;;5040814;28;20041;-67
2023/03/28 02:45:20;;;;;;;9.20;2.13;;;;;;;;;;5047356;28;20049;-67
2023/03/28 02:48:20;;;;;;;17.50;2.72;;;2.40;1.00;;;;;;5048313;28;20498;-68
2023/03/28 02:50:56;;;;;;;16.13;2.30;;;;;;;;;;5054445;28;20409;-67
2023/03/28 02:53:37;;;;;;;9.05;2.10;;;2.50;1.00;;;;;;5032442;28;20083;-67
2023/03/28 02:56:13;;;;;;;9.10;1.88;;;;;;;;;;5047295;28;20043;-67
2023/03/28 02:58:45;;;;;;;7.75;2.20;;;;;;;;;;5059813;28;20041;-67
2023/03/28 03:01:13;;;;;;;12.38;2.55;;;2.70;99.90;;;;;;5052454;28;20096;-68
2023/03/28 03:03:41;;;;;;;11.68;2.63;;;2.30;99.90;;;;;;5049173;28;20424;-67
2023/03/28 03:06:07;;;;;;;8.00;2.10;;;;;;;;;;5048139;28;20041;-67
2023/03/28 03:08:33;;;;;;;10.15;2.35;;;;;;;;;;5053052;28;20528;-67
2023/03/28 03:10:59;;;;;;;12.52;2.22;;;2.20;99.90;;;;;;5046238;28;20044;-67
2023/03/28 03:13:25;;;;;;;10.45;2.70;;;1.80;99.90;;;;;;5052452;28;20059;-67
2023/03/28 03:15:54;;;;;;;8.30;2.17;;;2.80;99.90;;;;;;5052596;28;20048;-67
2023/03/28 03:18:20;;;;;;;10.63;2.53;;;2.20;99.90;;;;;;5049450;28;20043;-67
2023/03/28 03:20:46;;;;;;;12.00;2.47;;;2.50;1.00;;;;;;5049274;28;20045;-67
2023/03/28 03:23:12;;;;;;;18.67;3.40;;;1.60;1.00;;;;;;5042682;28;20491;-67
2023/03/28 03:25:38;;;;;;;13.27;3.42;;;1.80;1.00;;;;;;5040633;28;20121;-67
2023/03/28 03:28:04;;;;;;;12.25;2.63;;;1.60;1.00;;;;;;5052954;28;20037;-67
2023/03/28 03:30:30;;;;;;;10.00;2.70;;;;;;;;;;5050217;28;20439;-67
2023/03/28 03:32:57;;;;;;;10.00;2.35;;;2.00;1.00;;;;;;5056720;28;20059;-67
2023/03/28 03:35:22;;;;;;;7.93;1.77;;;1.90;1.00;;;;;;5053981;28;20045;-67
2023/03/28 03:37:49;;;;;;;14.48;2.75;;;1.90;1.00;;;;;;5046643;28;20506;-67
2023/03/28 03:40:16;;;;;;;9.50;2.85;;;1.50;1.00;;;;;;5050656;28;20510;-67
2023/03/28 03:42:42;;;;;;;13.20;2.95;;;1.90;1.00;;;;;;5052497;28;20439;-67
2023/03/28 03:45:10;;;;;;;7.55;2.58;;;1.90;1.00;;;;;;5050504;28;20151;-67
2023/03/28 03:47:35;;;;;;;10.52;2.67;;;2.00;1.00;;;;;;5053016;28;20083;-67
2023/03/28 03:50:01;;;;;;;13.45;2.35;;;2.00;1.00;;;;;;5048239;28;20033;-68
2023/03/28 03:52:27;;;;;;;10.75;2.90;;;2.20;1.00;;;;;;5046734;28;20098;-67
2023/03/28 03:54:52;;;;;;;10.15;2.75;;;2.40;1.00;;;;;;5055999;28;20041;-67
2023/03/28 03:57:18;;;;;;;12.55;2.92;;;2.40;1.00;;;;;;5045944;28;20079;-67
2023/03/28 03:59:44;;;;;;;13.40;3.10;;;2.20;1.00;;;;;;5048003;28;20069;-67
2023/03/28 04:02:10;;;;;;;10.48;2.63;;;2.60;1.00;;;;;;5043626;28;21024;-68
2023/03/28 04:04:39;;;;;;;11.77;3.25;;;2.60;1.00;;;;;;5043508;28;20037;-67
2023/03/28 04:07:05;;;;;;;13.30;2.78;;;3.00;1.00;;;;;;5049098;28;20052;-67
2023/03/28 04:09:30;;;;;;;11.32;2.70;;;2.70;1.00;;;;;;5043947;28;20048;-67
2023/03/28 04:11:56;;;;;;;12.57;3.05;;;3.10;1.00;;;;;;5050762;28;20099;-67
2023/03/28 04:14:22;;;;;;;13.15;2.20;;;2.80;1.00;;;;;;5047509;28;20040;-67
2023/03/28 04:16:49;;;;;;;11.93;2.53;;;;;;;;;;5052462;28;20191;-67
2023/03/28 04:19:16;;;;;;;10.02;2.40;;;3.20;1.00;;;;;;5059379;28;20051;-67
2023/03/28 04:21:46;;;;;;;11.30;2.72;;;;;;;;;;5050022;28;20086;-67
2023/03/28 04:24:16;;;;;;;11.88;2.78;;;2.60;23.00;;;;;;5050476;28;20078;-68
2023/03/28 04:26:44;;;;;;;8.10;2.42;;;;;;;;;;5047443;28;20403;-67
2023/03/28 04:29:11;;;;;;;11.48;2.40;;;2.80;1.00;;;;;;5047052;28;20057;-67
2023/03/28 04:31:38;;;;;;;8.48;2.25;;;2.60;1.00;;;;;;5043521;28;20037;-67
2023/03/28 04:34:05;;;;;;;10.65;2.72;;;2.70;7.40;;;;;;5047872;28;20041;-67
2023/03/28 04:36:31;;;;;;;16.90;2.92;;;2.80;25.50;;;;;;5043452;28;20494;-68
2023/03/28 04:39:00;;;;;;;12.50;3.22;;;2.70;25.10;;;;;;5049659;28;20082;-68
2023/03/28 04:41:32;;;;;;;9.73;2.67;;;2.60;35.60;;;;;;5048308;28;20044;-68
2023/03/28 04:43:57;;;;;;;12.05;2.97;;;2.30;36.80;;;;;;5045193;28;20513;-68
2023/03/28 04:46:23;;;;;;;14.43;2.60;;;2.80;32.30;;;;;;5045410;28;20148;-68
2023/03/28 04:48:49;;;;;;;11.13;2.70;;;2.30;40.70;;;;;;5046023;28;20037;-69
2023/03/28 04:51:14;;;;;;;7.97;2.63;;;2.20;55.90;;;;;;5049392;28;20051;-69
2023/03/28 04:53:40;;;;;;;12.02;2.78;;;1.80;94.50;;;;;;5046200;28;20033;-68
2023/03/28 04:56:07;;;;;;;10.45;2.70;;;2.10;99.90;;;;;;5046387;28;20037;-69
2023/03/28 04:58:35;;;;;;;11.93;2.10;;;;;;;;;;5040859;28;20063;-69
2023/03/28 05:01:04;;;;;;;8.77;2.35;;;2.00;99.90;;;;;;5037884;28;20040;-69
2023/03/28 05:03:30;;;;;;;12.15;2.83;;;2.00;99.90;;;;;;5039488;28;20454;-69
2023/03/28 05:05:56;;;;;;;8.10;2.22;;;1.90;99.90;;;;;;5039433;28;20041;-69
2023/03/28 05:08:23;;;;;;;12.35;2.42;;;;;;;;;;5038554;28;20324;-69
2023/03/28 05:10:50;;;;;;;8.88;2.70;;;2.10;97.80;;;;;;5046964;28;20086;-68
2023/03/28 05:13:16;;;;;;;8.90;2.10;;;2.10;90.20;;;;;;5037250;28;20062;-69
2023/03/28 05:15:44;;;;;;;11.23;2.63;;;2.10;77.30;;;;;;5045620;28;20041;-68
2023/03/28 05:18:10;;;;;;;11.40;2.03;;;2.10;82.00;;;;;;5044550;28;20045;-68
2023/03/28 05:20:36;;;;;;;14.88;3.95;;;2.00;58.90;;;;;;5036670;28;20095;-68
2023/03/28 05:23:04;;;;;;;12.75;3.58;;;1.90;45.90;;;;;;5034637;28;20107;-68
2023/03/28 05:25:30;;;;;;;11.13;3.50;;;;;;;;;;5039312;28;20060;-68
2023/03/28 05:27:56;;;;;;;12.15;2.67;;;1.40;48.20;;;;;;5048253;28;20130;-68
2023/03/28 05:30:22;;;;;;;9.68;2.65;;;;;;;;;;5047201;28;20735;-68
2023/03/28 05:32:48;;;;;;;9.55;2.97;;;;;;;;;;5048352;28;20041;-68
2023/03/28 05:35:15;;;;;;;11.05;2.90;;;1.60;90.70;;;;;;5039999;28;20123;-68
2023/03/28 05:37:41;;;;;;;12.23;2.45;;;1.80;95.70;;;;;;5047967;28;20045;-68
2023/03/28 05:40:08;;;;;;;14.15;3.10;;;;;;;;;;5047313;28;20442;-68
2023/03/28 05:42:34;;;;;;;8.68;2.33;;;;;;;;;;5048761;28;20475;-68
2023/03/28 05:45:01;;;;;;;13.07;2.60;;;1.80;99.90;;;;;;5050902;28;20115;-68
2023/03/28 05:47:27;;;;;;;12.48;3.55;;;1.70;99.90;;;;;;5049713;28;20044;-68
2023/03/28 05:49:53;;;;;;;9.57;2.20;;;1.70;99.90;;;;;;5050105;28;20045;-68
2023/03/28 05:52:18;;;;;;;9.32;1.95;;;2.20;99.90;;;;;;5044544;28;20128;-68
2023/03/28 05:54:44;;;;;;;8.10;2.30;;;1.60;99.90;;;;;;5044231;28;20121;-68
2023/03/28 05:57:10;;;;;;;8.30;2.30;;;1.80;99.90;;;;;;5050321;28;20036;-68
2023/03/28 05:59:39;;;;;;;7.10;2.15;;;;;;;;;;5048583;28;20037;-68
2023/03/28 06:02:06;;;;;;;9.20;2.33;;;;;;;;;;5042683;28;20075;-68
2023/03/28 06:04:32;;;;;;;8.52;2.40;;;1.50;99.90;;;;;;5052752;28;20426;-68
2023/03/28 06:06:57;;;;;;;11.25;2.55;;;1.60;99.90;;;;;;5056273;28;20041;-68
2023/03/28 06:09:23;;;;;;;7.72;2.20;;;2.00;99.90;;;;;;5053424;28;20449;-68
2023/03/28 06:11:48;;;;;;;9.40;2.60;;;2.00;99.90;;;;;;5055371;28;20041;-68
2023/03/28 06:14:14;;;;;;;11.05;2.63;;;2.20;99.90;;;;;;5046801;28;20047;-68
2023/03/28 06:16:40;;;;;;;8.95;1.83;;;2.50;99.90;;;;;;5055352;28;20041;-68
2023/03/28 06:19:05;;;;;;;9.23;2.72;;;2.50;99.90;;;;;;5040472;28;20045;-68
2023/03/28 06:21:31;;;;;;;9.73;2.20;;;2.30;99.90;;;;;;5046240;28;20458;-67
2023/03/28 06:23:56;;;;;;;7.78;2.60;;;2.80;86.40;;;;;;5057693;28;20516;-68
2023/03/28 06:26:22;;;;;;;11.75;2.83;;;;;;;;;;5045512;28;20038;-68
2023/03/28 06:28:48;;;;;;;9.02;2.30;;;2.70;7.80;;;;;;5046424;28;20419;-68
2023/03/28 06:31:15;;;;;;;6.75;2.33;;;2.70;16.40;;;;;;5054308;28;20032;-68
2023/03/28 06:33:40;;;;;;;10.30;3.35;;;2.90;1.00;;;;;;5052388;28;20033;-68
2023/03/28 06:36:10;;;;;;;8.38;2.22;;;2.70;1.00;;;;;;5054954;28;20040;-68
2023/03/28 06:38:36;;;;;;;11.27;2.58;;;2.80;1.00;;;;;;5057789;28;20119;-68
2023/03/28 06:41:02;;;;;;;7.13;2.63;;;3.40;1.00;;;;;;5061437;28;20036;-68
2023/03/28 06:43:30;;;;;;;12.82;2.35;;;3.40;1.00;;;;;;5052066;28;20383;-68
2023/03/28 06:45:56;;;;;;;7.80;1.90;;;;;;;;;;5042320;28;20041;-68
2023/03/28 06:48:22;;;;;;;7.72;1.90;;;3.30;99.90;;;;;;5058097;28;20120;-68
2023/03/28 06:50:51;;;;;;;6.32;1.85;;;3.40;99.90;;;;;;5059199;28;20044;-68
2023/03/28 06:53:17;;;;;;;10.02;1.80;;;3.10;99.90;;;;;;5052979;28;20040;-67
2023/03/28 06:55:43;;;;;;;11.10;2.20;;;3.80;99.90;;;;;;5052240;28;20449;-68
2023/03/28 06:58:08;;;;;;;7.15;1.80;;;3.70;99.90;;;;;;5055204;28;20049;-67
2023/03/28 07:00:36;;;;;;;8.20;1.83;;;3.80;99.90;;;;;;5056739;28;20037;-67
2023/03/28 07:03:02;;;;;;;7.15;1.95;;;;;;;;;;5053246;28;20043;-66
2023/03/28 07:05:28;;;;;;;8.25;2.05;;;4.00;99.90;;;;;;5059417;28;20044;-67
2023/03/28 07:07:54;;;;;;;7.00;1.85;;;4.10;99.90;;;;;;5044898;28;20068;-67
2023/03/28 07:10:20;;;;;;;7.00;2.53;;;4.30;47.50;;;;;;5055471;28;20072;-67
2023/03/28 07:12:46;;;;;;;8.88;1.90;;;5.10;1.00;;;;;;5049853;28;20037;-67
2023/03/28 07:15:12;;;;;;;8.48;2.05;;;4.80;1.00;;;;;;5049299;28;20037;-67
2023/03/28 07:17:37;;;;;;;12.55;2.45;;;4.30;1.00;;;;;;5058496;28;20048;-67
2023/03/28 07:20:04;;;;;;;7.97;1.58;;;4.70;1.00;;;;;;5054281;28;20123;-67
2023/03/28 07:22:30;;;;;;;7.45;2.15;;;4.40;1.00;;;;;;5058779;28;20044;-66
2023/03/28 07:24:55;;;;;;;7.35;1.85;;;5.50;1.00;;;;;;5051211;28;20066;-67
2023/03/28 07:27:21;;;;;;;6.50;1.88;;;5.20;1.00;;;;;;5057123;28;20052;-67
2023/03/28 07:29:47;;;;;;;8.18;1.77;;;5.10;1.00;;;;;;5051437;28;20410;-68
2023/03/28 07:32:13;;;;;;;8.40;1.73;;;5.30;99.90;;;;;;5047498;28;20037;-66
2023/03/28 07:34:39;;;;;;;5.35;1.40;;;5.50;99.90;;;;;;5058054;28;20045;-67
2023/03/28 07:37:05;;;;;;;5.88;1.65;;;5.50;99.90;;;;;;5053720;28;20040;-67
2023/03/28 07:39:31;;;;;;;11.57;2.65;;;6.10;99.90;;;;;;5054838;28;20601;-67
2023/03/28 07:41:56;;;;;;;6.72;1.60;;;5.40;99.90;;;;;;5046896;28;20044;-67
2023/03/28 07:44:22;;;;;;;5.28;1.35;;;5.50;99.90;;;;;;5046540;28;20151;-67
2023/03/28 07:46:50;;;;;;;5.47;1.80;;;6.20;99.90;;;;;;5057892;28;20600;-67
2023/03/28 07:49:16;;;;;;;4.50;1.45;;;5.80;99.90;;;;;;5035752;28;20128;-68
2023/03/28 07:51:42;;;;;;;4.97;1.55;;;5.70;99.90;;;;;;5055035;28;20055;-67
2023/03/28 07:54:16;;;;;;;4.55;1.42;;;5.50;99.90;;;;;;5051384;28;20044;-67
2023/03/28 07:56:42;;;;;;;5.85;1.90;;;;;;;;;;5045377;28;20098;-67
2023/03/28 07:59:08;;;;;;;8.07;1.65;;;6.00;99.90;;;;;;5049353;28;20059;-67
2023/03/28 08:01:34;;;;;;;4.63;1.65;;;;;;;;;;5044922;28;20037;-67
2023/03/28 08:04:01;;;;;;;7.68;2.00;;;6.20;99.90;;;;;;5059238;28;20032;-67
2023/03/28 08:06:26;;;;;;;8.50;1.38;;;5.80;99.90;;;;;;5038090;28;20041;-67
2023/03/28 08:08:52;;;;;;;10.25;2.10;;;5.70;99.90;;;;;;5045703;28;20086;-67
2023/03/28 08:11:17;;;;;;;6.13;1.50;;;6.20;99.90;;;;;;5048716;28;20056;-67
2023/03/28 08:13:43;;;;;;;5.20;2.28;;;6.00;99.90;;;;;;5049527;28;20044;-67
2023/03/28 08:16:09;;;;;;;8.10;1.92;;;5.80;99.90;;;;;;5057608;28;20043;-67
2023/03/28 08:18:34;;;;;;;4.40;1.10;;;6.50;99.90;;;;;;5039451;28;20061;-67
2023/03/28 08:21:03;;;;;;;5.05;1.17;;;6.20;99.90;;;;;;5050121;28;20051;-67
2023/03/28 08:23:28;;;;;;;4.63;1.38;;;6.40;99.90;;;;;;5050124;28;20064;-67
2023/03/28 08:26:03;;;;;;;4.20;1.83;;;6.00;99.90;;;;;;5055448;28;20480;-67
2023/03/28 08:28:30;;;;;;;;;;;6.90;99.90;;;;;;5058258;28;20371;-67
2023/03/28 08:30:55;;;;;;;5.82;1.40;;;6.60;99.90;;;;;;5054777;28;19917;-67
2023/03/28 08:33:21;;;;;;;5.15;2.00;;;6.40;99.90;;;;;;5058179;28;20041;-69
2023/03/28 08:35:49;;;;;;;5.15;0.90;;;5.60;99.90;;;;;;5047136;28;20037;-69
2023/03/28 08:38:15;;;;;;;5.35;1.20;;;6.30;99.90;;;;;;5046747;28;20044;-69
2023/03/28 08:40:46;;;;;;;5.32;1.20;;;5.90;99.90;;;;;;5043299;28;20044;-67
2023/03/28 08:43:37;;;;;;;5.90;1.20;;;5.80;99.90;;;;;;5041937;28;20032;-66
2023/03/28 08:46:02;;;;;;;4.28;1.05;;;6.60;99.90;;;;;;5041808;28;20095;-67
2023/03/28 08:48:34;;;;;;;6.50;1.55;;;;;;;;;;5048256;28;20352;-67
2023/03/28 08:51:09;;;;;;;5.75;1.50;;;6.00;99.90;;;;;;5047398;28;20417;-66
2023/03/28 08:53:42;;;;;;;6.28;1.42;;;6.70;99.90;;;;;;5048477;28;20032;-67
2023/03/28 08:56:09;;;;;;;5.00;1.10;;;6.20;99.90;;;;;;5046530;28;20356;-67
2023/03/28 08:58:59;;;;;;;4.65;1.50;;;6.70;99.90;;;;;;5047633;28;20055;-67
2023/03/28 09:01:28;;;;;;;5.18;1.00;;;6.10;99.90;;;;;;5043614;28;20045;-67
2023/03/28 09:03:54;;;;;;;4.57;1.08;;;6.90;99.90;;;;;;5031874;28;20044;-66
2023/03/28 09:06:38;;;;;;;6.03;1.90;;;6.10;99.90;;;;;;5042330;28;20040;-67
2023/03/28 09:09:42;;;;;;;5.30;1.35;;;7.10;99.90;;;;;;5044715;28;20041;-67
2023/03/28 09:12:07;;;;;;;6.72;1.83;;;6.70;99.90;;;;;;5053195;28;20041;-66
2023/03/28 09:14:55;;;;;;;7.30;1.50;;;6.60;99.90;;;;;;5042888;28;20033;-66
2023/03/28 09:17:38;;;;;;;6.03;1.63;;;7.00;99.90;;;;;;5055835;28;20032;-67
2023/03/28 09:20:26;;;;;;;4.78;1.60;;;6.60;99.90;;;;;;5049493;28;20040;-67
2023/03/28 09:23:06;;;;;;;6.65;1.40;;;6.70;99.90;;;;;;5043010;28;20056;-66
2023/03/28 09:25:57;;;;;;;6.38;1.65;;;6.60;99.90;;;;;;5052921;28;20142;-67
2023/03/28 09:28:43;;;;;;;5.28;1.83;;;6.50;99.90;;;;;;5050434;28;20079;-67
2023/03/28 09:31:13;;;;;;;5.80;1.92;;;7.40;99.90;;;;;;5038085;28;20240;-67
2023/03/28 09:33:42;;;;;;;8.60;1.63;;;7.60;99.90;;;;;;5055648;28;20037;-67
2023/03/28 09:36:13;;;;;;;4.55;1.40;;;7.40;99.90;;;;;;5054613;28;20044;-67
2023/03/28 09:38:44;;;;;;;6.20;1.55;;;;;;;;;;5047959;28;20558;-67
2023/03/28 09:41:22;;;;;;;5.32;1.77;;;7.50;99.90;;;;;;5052258;28;20048;-67
2023/03/28 09:43:55;;;;;;;7.68;1.70;;;7.80;99.90;;;;;;5051681;28;20120;-67
2023/03/28 09:46:29;;;;;;;5.20;2.33;;;7.60;99.90;;;;;;5052859;28;20049;-67
2023/03/28 09:48:55;;;;;;;5.40;2.17;;;7.40;99.90;;;;;;5049604;28;20106;-67
2023/03/28 09:51:21;;;;;;;6.43;1.90;;;;;;;;;;5052995;28;20047;-66
2023/03/28 09:53:47;;;;;;;5.47;1.70;;;;;;;;;;5058217;28;20044;-67
2023/03/28 09:56:27;;;;;;;5.03;1.70;;;7.30;99.90;;;;;;5046524;28;20034;-67
2023/03/28 09:58:55;;;;;;;5.68;1.98;;;7.90;99.90;;;;;;5053214;28;20119;-67
2023/03/28 10:01:35;;;;;;;5.80;1.98;;;7.80;99.90;;;;;;5049450;28;20040;-67
2023/03/28 10:04:01;;;;;;;3.90;1.38;;;8.20;99.90;;;;;;5062735;28;20513;-67
2023/03/28 10:06:31;;;;;;;5.10;1.65;;;7.70;99.90;;;;;;5054614;28;20052;-66
2023/03/28 10:09:29;;;;;;;7.72;2.20;;;8.00;99.90;;;;;;5059848;28;20041;-67
2023/03/28 10:11:58;;;;;;;6.65;2.20;;;;;;;;;;5046483;28;20045;-67
2023/03/28 10:14:30;;;;;;;6.55;2.08;;;7.30;99.90;;;;;;5050992;28;20040;-67
2023/03/28 10:17:01;;;;;;;5.63;1.92;;;7.50;99.90;;;;;;5053983;28;20057;-67
2023/03/28 10:19:32;;;;;;;7.53;1.95;;;7.70;99.90;;;;;;5055031;28;20055;-67
2023/03/28 10:22:04;;;;;;;6.40;2.08;;;7.80;99.90;;;;;;5058000;28;20127;-67
2023/03/28 10:24:31;;;;;;;9.55;2.50;;;8.00;99.90;;;;;;5055008;28;20044;-67
2023/03/28 10:27:05;;;;;;;6.15;2.20;;;;;;;;;;5056571;28;20525;-67
2023/03/28 10:29:31;;;;;;;10.77;2.53;;;7.90;99.90;;;;;;5046985;28;20036;-67
2023/03/28 10:31:57;;;;;;;8.20;2.28;;;7.60;99.90;;;;;;5051067;28;20041;-67
2023/03/28 10:34:26;;;;;;;6.22;2.15;;;8.50;99.90;;;;;;5053484;28;20113;-66
2023/03/28 10:36:51;;;;;;;8.13;2.50;;;8.30;99.90;;;;;;5053118;28;20047;-66
2023/03/28 10:39:25;;;;;;;7.97;2.60;;;8.40;99.90;;;;;;5053250;28;20037;-67
2023/03/28 10:41:52;;;;;;;7.68;2.10;;;8.60;99.90;;;;;;5055446;28;20045;-67
2023/03/28 10:44:36;;;;;;;6.35;1.85;;;8.30;99.90;;;;;;5047341;28;20055;-67
2023/03/28 10:47:07;;;;;;;7.25;2.72;;;8.40;99.90;;;;;;5054484;28;20039;-67
2023/03/28 10:49:44;;;;;;;6.90;2.50;;;;;;;;;;5044350;28;20044;-67
2023/03/28 10:52:36;;;;;;;7.70;2.88;;;7.80;99.90;;;;;;5053792;28;20092;-67
2023/03/28 10:55:11;;;;;;;7.25;2.70;;;8.90;99.90;;;;;;5053970;28;20605;-67
2023/03/28 10:57:54;;;;;;;11.57;2.80;;;8.10;99.90;;;;;;5048964;28;20517;-66
2023/03/28 11:00:48;;;;;;;6.40;2.33;;;8.50;99.90;;;;;;5059635;28;20066;-67
2023/03/28 11:03:17;;;;;;;13.50;3.65;;;8.80;99.90;;;;;;5051431;28;20466;-66
2023/03/28 11:05:50;;;;;;;9.73;2.97;;;8.70;99.90;;;;;;5056272;28;20041;-67
2023/03/28 11:08:27;;;;;;;8.52;2.80;;;8.80;99.90;;;;;;5043785;28;20049;-67
2023/03/28 11:11:00;;;;;;;9.10;2.70;;;8.80;1.00;;;;;;5033073;28;20037;-67
2023/03/28 11:13:40;;;;;;;7.07;2.60;;;8.80;99.90;;;;;;5048135;28;20084;-66
2023/03/28 11:16:32;;;;;;;7.95;2.78;;;8.40;1.00;;;;;;5038938;28;20041;-66
2023/03/28 11:19:33;;;;;;;7.00;2.60;;;8.60;1.00;;;;;;5050416;28;20053;-66
2023/03/28 11:22:27;;;;;;;8.07;2.88;;;9.10;99.90;;;;;;5054215;28;20499;-67
2023/03/28 11:25:05;;;;;;;10.65;3.40;;;9.30;99.90;;;;;;5060405;28;20045;-67
2023/03/28 11:27:51;;;;;;;12.45;3.80;;;9.40;99.90;;;;;;5058403;28;20411;-67
2023/03/28 11:30:23;;;;;;;7.50;2.55;;;9.20;99.90;;;;;;5054382;28;20040;-67
2023/03/28 11:32:48;;;;;;;9.57;3.00;;;9.20;99.90;;;;;;5057365;28;20205;-67
2023/03/28 11:35:25;;;;;;;9.85;3.05;;;8.80;1.00;;;;;;5053757;28;20097;-67
2023/03/28 11:38:16;;;;;;;7.45;2.55;;;9.60;1.00;;;;;;5057670;28;20052;-67
2023/03/28 11:40:51;;;;;;;7.68;3.05;;;8.80;1.00;;;;;;5046709;28;20037;-67
2023/03/28 11:43:30;;;;;;;7.32;2.70;;;9.20;1.00;;;;;;5051618;28;20131;-67
2023/03/28 11:46:10;;;;;;;11.13;3.20;;;9.10;62.80;;;;;;5054945;28;20041;-67
2023/03/28 11:49:11;;;;;;;6.50;2.67;;;9.00;1.00;;;;;;5055574;28;20641;-68
2023/03/28 11:51:55;;;;;;;9.45;3.58;;;9.10;58.70;;;;;;5055006;28;20418;-67
2023/03/28 11:54:27;;;;;;;7.68;2.83;;;8.70;98.00;;;;;;5054500;28;20040;-67
2023/03/28 11:57:02;;;;;;;8.70;2.70;;;9.40;1.00;;;;;;5055030;28;20149;-67
2023/03/28 11:59:56;;;;;;;7.97;2.83;;;9.80;1.00;;;;;;5052732;28;20039;-67
2023/03/28 12:02:44;;;;;;;5.85;2.60;;;8.80;99.90;;;;;;5057024;28;20079;-67
2023/03/28 12:05:38;;;;;;;7.55;3.05;;;9.50;99.90;;;;;;5059018;28;20044;-67
2023/03/28 12:08:29;;;;;;;7.47;2.60;;;9.50;99.90;;;;;;5048895;28;20116;-67
2023/03/28 12:11:01;;;;;;;7.60;2.65;;;9.70;99.90;;;;;;5043309;28;20048;-67
2023/03/28 12:13:41;;;;;;;7.70;2.53;;;10.40;99.90;;;;;;5052497;28;20414;-67
2023/03/28 12:16:22;;;;;;;9.13;3.08;;;9.70;99.90;;;;;;5038102;28;20037;-67
2023/03/28 12:19:11;;;;;;;7.30;2.28;;;9.50;99.90;;;;;;5040389;28;20116;-67
2023/03/28 12:21:43;;;;;;;8.93;3.25;;;9.80;99.90;;;;;;5049764;28;20511;-67
2023/03/28 12:24:43;;;;;;;8.52;2.72;;;9.70;99.90;;;;;;5055522;28;20547;-67
2023/03/28 12:27:36;;;;;;;5.55;2.20;;;9.90;99.90;;;;;;5050981;28;20446;-67
2023/03/28 12:30:25;;;;;;;5.28;2.40;;;9.70;99.90;;;;;;5053688;28;20045;-67
2023/03/28 12:33:12;;;;;;;8.45;2.72;;;10.30;99.90;;;;;;5055871;28;20045;-67
2023/03/28 12:35:50;;;;;;;5.55;2.10;;;;;;;;;;5044184;28;20042;-67
2023/03/28 12:38:33;;;;;;;5.40;2.25;;;10.30;99.90;;;;;;5045672;28;20040;-66
2023/03/28 12:41:00;;;;;;;8.80;2.67;;;10.20;99.90;;;;;;5041348;28;20029;-66
2023/03/28 12:43:42;;;;;;;7.50;2.38;;;10.00;99.90;;;;;;5054227;28;20048;-67
2023/03/28 12:46:21;;;;;;;8.55;2.22;;;10.50;99.90;;;;;;5047674;28;20029;-67
2023/03/28 12:49:23;;;;;;;8.70;2.92;;;10.40;99.90;;;;;;5040498;28;20068;-67
2023/03/28 12:51:55;;;;;;;6.38;2.28;;;10.90;99.90;;;;;;5048264;28;20530;-66
2023/03/28 12:54:24;;;;;;;9.60;2.63;;;11.10;99.90;;;;;;5046089;28;20091;-67
2023/03/28 12:57:08;;;;;;;7.63;2.90;;;10.90;99.90;;;;;;5056000;28;20064;-66
2023/03/28 12:59:38;;;;;;;7.28;2.80;;;11.10;99.90;;;;;;5043086;28;20048;-67
2023/03/28 13:02:18;;;;;;;8.57;3.03;;;11.70;99.90;;;;;;5044089;28;20129;-67
2023/03/28 13:05:05;;;;;;;9.43;3.50;;;11.90;99.90;;;;;;5037595;28;20244;-66
2023/03/28 13:08:03;;;;;;;8.55;4.03;;;11.40;99.90;;;;;;5048646;28;20051;-67
2023/03/28 13:10:34;;;;;;;9.70;4.55;;;11.50;99.90;;;;;;5037712;28;20552;-66
2023/03/28 13:13:21;;;;;;;8.57;3.40;;;10.90;99.90;;;;;;5049941;28;20398;-67
2023/03/28 13:15:53;;;;;;;7.53;2.97;;;10.50;99.90;;;;;;5055462;28;20029;-67
2023/03/28 13:18:21;;;;;;;8.35;3.20;;;10.70;99.90;;;;;;5046727;28;20055;-67
2023/03/28 13:20:51;;;;;;;9.98;3.40;;;10.80;99.90;;;;;;5045035;28;20037;-67
2023/03/28 13:23:38;;;;;;;8.68;3.28;;;11.10;99.90;;;;;;5045824;28;20087;-67
2023/03/28 13:26:05;;;;;;;8.75;3.15;;;11.10;99.90;;;;;;5050570;28;20094;-67
2023/03/28 13:28:49;;;;;;;7.72;3.00;;;10.80;99.90;;;;;;5052759;28;20051;-66
2023/03/28 13:31:23;;;;;;;7.63;2.92;;;10.70;99.90;;;;;;5057717;28;20033;-67
2023/03/28 13:34:00;;;;;;;7.57;4.10;;;;;;;;;;5038816;28;20040;-67